Time;durP1;ratioP1;P1;durP2;ratioP2;P2;SDS_P1;SDS_P2;PMS_P1;PMS_P2;Temp;Humidity;BMP_temperature;BMP_pressure;BME280_temperature;BME280_humidity;BME280_pressure;Samples;Min_cycle;Max_cycle;Signal;HPM_P1;HPM_P2
2022/03/04 00:00:16;;;;;;;15.48;11.20;;;;;;;1.44;68.67;101155.63;674995;29;1344;-76
2022/03/04 00:00:37;;;;;;;14.80;11.27;;;;;;;1.42;69.35;101139.25;675628;29;1430;-77
2022/03/04 00:00:58;;;;;;;15.27;11.38;;;;;;;1.44;68.30;101145.31;680021;28;4399;-77
2022/03/04 00:01:18;;;;;;;15.32;11.18;;;;;;;1.50;68.24;101138.72;676484;28;1306;-76
2022/03/04 00:01:39;;;;;;;15.23;10.80;;;;;;;1.53;68.19;101144.00;680025;28;3908;-77
2022/03/04 00:02:00;;;;;;;14.40;10.57;;;;;;;1.82;67.14;101131.38;683288;28;1247;-76
2022/03/04 00:02:20;;;;;;;15.60;11.35;;;;;;;1.82;67.12;101140.81;683595;28;1371;-76
2022/03/04 00:02:41;;;;;;;17.52;11.50;;;;;;;1.72;66.33;101159.31;681255;28;1571;-76
2022/03/04 00:03:03;;;;;;;17.30;11.35;;;;;;;1.76;66.80;101153.44;679747;28;1774;-76
2022/03/04 00:03:23;;;;;;;16.75;11.23;;;;;;;1.78;68.57;101162.13;676308;29;1364;-76
2022/03/04 00:03:44;;;;;;;17.15;11.25;;;;;;;1.73;68.62;101150.75;674814;28;3409;-76
2022/03/04 00:04:05;;;;;;;17.00;11.40;;;;;;;1.77;68.26;101160.38;680637;28;4277;-77
2022/03/04 00:04:26;;;;;;;16.40;11.40;;;;;;;1.78;68.13;101128.63;675288;29;3379;-76
2022/03/04 00:04:50;;;;;;;15.00;11.05;;;;;;;1.75;66.98;101156.88;675144;29;1294;-76
2022/03/04 00:05:10;;;;;;;16.52;11.25;;;;;;;1.74;66.79;101168.84;675155;29;1251;-76
2022/03/04 00:05:31;;;;;;;15.70;10.90;;;;;;;1.81;66.50;101139.03;676561;29;1446;-76
2022/03/04 00:05:51;;;;;;;15.60;11.13;;;;;;;1.77;67.12;101153.50;676835;28;1272;-76
2022/03/04 00:06:12;;;;;;;15.57;11.48;;;;;;;1.87;66.76;101155.63;679061;28;1228;-76
2022/03/04 00:06:33;;;;;;;16.70;11.55;;;;;;;1.90;67.11;101154.88;677509;28;3336;-76
2022/03/04 00:06:54;;;;;;;15.25;11.18;;;;;;;1.83;66.92;101138.28;675432;28;4440;-76
2022/03/04 00:07:15;;;;;;;16.48;10.85;;;;;;;1.82;67.04;101127.91;677973;28;1303;-76
2022/03/04 00:07:38;;;;;;;15.18;11.00;;;;;;;1.91;66.80;101143.75;678673;28;1488;-76
2022/03/04 00:07:58;;;;;;;14.83;10.80;;;;;;;1.92;68.89;101131.72;678321;28;1247;-76
2022/03/04 00:08:19;;;;;;;15.88;11.25;;;;;;;1.91;67.09;101156.66;679641;28;1533;-76
2022/03/04 00:08:41;;;;;;;14.25;10.73;;;;;;;1.88;69.27;101133.28;680107;28;1520;-76
2022/03/04 00:09:04;;;;;;;14.90;11.35;;;;;;;1.74;69.51;101163.69;678876;28;1446;-76
2022/03/04 00:09:25;;;;;;;15.52;11.90;;;;;;;1.64;69.09;101159.88;681954;28;3478;-76
2022/03/04 00:09:45;;;;;;;15.93;11.60;;;;;;;1.54;67.68;101160.34;677778;28;2314;-76
2022/03/04 00:10:09;;;;;;;15.75;11.05;;;;;;;1.43;68.31;101154.75;673192;29;4293;-76
2022/03/04 00:10:34;;;;;;;15.48;10.95;;;;;;;1.61;67.47;101149.47;677579;29;1440;-76
2022/03/04 00:10:54;;;;;;;15.27;10.73;;;;;;;1.69;68.86;101142.91;676368;28;1544;-76
2022/03/04 00:11:15;;;;;;;16.23;11.65;;;;;;;1.60;70.90;101137.38;676825;29;1402;-77
2022/03/04 00:11:35;;;;;;;15.57;11.77;;;;;;;1.59;69.70;101163.97;673321;29;1413;-76
2022/03/04 00:12:06;;;;;;;;;;;;;;;;;;;;;
2022/03/04 00:12:28;;;;;;;16.77;12.07;;;;;;;1.48;69.52;101170.41;675257;29;3118;-77
2022/03/04 00:12:49;;;;;;;16.08;11.60;;;;;;;1.41;70.03;101137.47;675039;29;1386;-76
2022/03/04 00:13:12;;;;;;;16.33;11.50;;;;;;;1.36;69.56;101165.63;675620;29;5115;-76
2022/03/04 00:13:33;;;;;;;19.70;11.90;;;;;;;1.30;69.78;101173.09;674564;29;1617;-76
2022/03/04 00:13:56;;;;;;;16.30;11.73;;;;;;;1.21;70.45;101137.56;676559;29;1324;-76
2022/03/04 00:14:19;;;;;;;15.73;11.75;;;;;;;1.13;69.91;101138.94;677089;29;1218;-76
2022/03/04 00:14:40;;;;;;;16.10;11.70;;;;;;;1.09;69.65;101165.38;673158;29;1487;-76
2022/03/04 00:15:04;;;;;;;16.85;11.68;;;;;;;1.11;69.99;101153.41;672749;29;3361;-76
2022/03/04 00:15:25;;;;;;;17.05;11.45;;;;;;;1.14;70.37;101157.03;675661;29;3517;-76
2022/03/04 00:15:50;;;;;;;15.67;11.30;;;;;;;1.34;69.77;101154.38;675757;29;1327;-76
2022/03/04 00:16:14;;;;;;;15.85;11.48;;;;;;;1.43;69.60;101154.75;676831;28;4295;-76
2022/03/04 00:16:35;;;;;;;15.45;11.65;;;;;;;1.40;69.18;101127.97;679666;28;1351;-76
2022/03/04 00:16:56;;;;;;;15.83;11.33;;;;;;;1.32;69.66;101140.56;679226;28;1475;-76
2022/03/04 00:17:18;;;;;;;15.67;11.43;;;;;;;1.29;68.64;101153.34;678977;28;1307;-76
2022/03/04 00:17:39;;;;;;;16.40;11.60;;;;;;;1.38;69.08;101152.81;680932;28;1209;-76
2022/03/04 00:17:59;;;;;;;16.80;11.38;;;;;;;1.40;68.69;101128.88;677537;28;1974;-76
2022/03/04 00:18:20;;;;;;;16.50;11.57;;;;;;;1.35;69.23;101138.97;675625;28;1597;-76
2022/03/04 00:19:06;;;;;;;15.45;11.38;;;;;;;1.25;69.80;101143.72;679077;28;1430;-76
2022/03/04 00:19:29;;;;;;;15.48;11.57;;;;;;;1.66;68.32;101158.25;680068;28;4958;-76
2022/03/04 00:19:49;;;;;;;15.67;11.13;;;;;;;1.82;67.45;101138.22;682783;28;1229;-76
2022/03/04 00:20:10;;;;;;;17.27;11.63;;;;;;;1.73;68.65;101153.34;680813;28;1250;-76
2022/03/04 00:20:31;;;;;;;17.42;12.43;;;;;;;1.64;68.47;101162.47;681575;28;2516;-76
2022/03/04 00:20:52;;;;;;;15.82;11.77;;;;;;;1.63;67.94;101152.97;678030;28;3662;-76
2022/03/04 00:21:19;;;;;;;15.65;11.40;;;;;;;1.57;68.23;101163.03;677747;28;1600;-76
2022/03/04 00:21:48;;;;;;;15.68;11.30;;;;;;;1.51;69.28;101152.50;677272;28;1325;-76
2022/03/04 00:22:09;;;;;;;15.55;11.15;;;;;;;1.39;68.70;101150.31;679166;28;4521;-76
2022/03/04 00:22:29;;;;;;;16.45;11.32;;;;;;;1.33;69.92;101175.78;681709;28;1298;-76
2022/03/04 00:22:50;;;;;;;17.40;11.80;;;;;;;1.25;69.58;101142.00;679082;28;1358;-76
2022/03/04 00:23:13;;;;;;;17.83;11.40;;;;;;;1.31;68.53;101154.25;674745;29;1399;-76
2022/03/04 00:23:40;;;;;;;16.23;10.68;;;;;;;1.58;68.42;101141.63;676094;29;3547;-76
2022/03/04 00:24:10;;;;;;;17.25;11.20;;;;;;;1.53;69.57;101163.75;675589;29;1487;-76
2022/03/04 00:24:31;;;;;;;16.38;11.27;;;;;;;1.56;69.56;101147.53;675836;29;1817;-76
2022/03/04 00:24:52;;;;;;;18.33;11.52;;;;;;;1.62;69.16;101164.13;674484;29;5218;-76
2022/03/04 00:25:13;;;;;;;17.17;11.40;;;;;;;1.56;68.44;101150.97;680428;28;1567;-76
2022/03/04 00:25:39;;;;;;;16.67;11.43;;;;;;;1.35;67.41;101187.06;681118;28;1476;-76
2022/03/04 00:26:00;;;;;;;17.00;11.57;;;;;;;1.25;68.05;101178.06;682615;28;1167;-76
2022/03/04 00:26:23;;;;;;;17.88;12.00;;;;;;;1.22;69.39;101180.53;681311;28;2277;-76
2022/03/04 00:26:47;;;;;;;16.83;11.50;;;;;;;1.10;69.33;101173.16;681025;28;4008;-76
2022/03/04 00:27:07;;;;;;;16.27;11.15;;;;;;;1.02;70.24;101179.69;682402;28;1305;-76
2022/03/04 00:27:31;;;;;;;16.75;11.30;;;;;;;0.89;70.80;101173.13;682849;28;1817;-76
2022/03/04 00:27:52;;;;;;;16.55;11.40;;;;;;;0.92;70.63;101190.41;679441;28;1318;-76
2022/03/04 00:28:14;;;;;;;15.85;11.50;;;;;;;0.99;70.08;101153.81;679946;28;4670;-76
2022/03/04 00:28:38;;;;;;;14.85;11.32;;;;;;;0.98;72.91;101163.25;681359;28;1279;-76
2022/03/04 00:28:58;;;;;;;15.70;11.27;;;;;;;0.90;70.89;101149.16;683675;28;1459;-77
2022/03/04 00:29:19;;;;;;;17.08;11.57;;;;;;;0.81;71.08;101179.66;685413;28;3182;-77
2022/03/04 00:29:40;;;;;;;17.58;11.85;;;;;;;0.74;71.84;101155.34;681961;28;1166;-76
2022/03/04 00:30:01;;;;;;;15.43;11.20;;;;;;;0.68;71.41;101153.38;683315;28;1365;-76
2022/03/04 00:30:22;;;;;;;15.88;11.00;;;;;;;0.58;71.65;101182.09;681618;28;1280;-76
2022/03/04 00:30:48;;;;;;;15.52;11.10;;;;;;;0.55;70.96;101178.50;675312;29;1530;-76
2022/03/04 00:31:14;;;;;;;15.73;11.30;;;;;;;0.59;71.06;101162.41;678050;28;4765;-76
2022/03/04 00:31:39;;;;;;;15.00;10.90;;;;;;;0.89;71.40;101152.53;678210;28;1330;-76
2022/03/04 00:31:59;;;;;;;16.50;11.40;;;;;;;1.16;71.27;101164.81;681448;28;1192;-76
2022/03/04 00:32:20;;;;;;;16.55;11.10;;;;;;;1.09;71.65;101155.06;678669;28;4172;-76
2022/03/04 00:32:40;;;;;;;15.93;11.50;;;;;;;1.00;72.08;101192.50;677446;28;1248;-76
2022/03/04 00:33:09;;;;;;;16.63;11.60;;;;;;;0.85;72.36;101173.81;675901;29;1489;-77
2022/03/04 00:33:29;;;;;;;16.48;11.10;;;;;;;0.81;71.20;101148.75;677956;29;1153;-76
2022/03/04 00:33:51;;;;;;;17.52;11.35;;;;;;;0.91;70.74;101179.22;678856;28;1766;-76
2022/03/04 00:34:15;;;;;;;18.15;11.55;;;;;;;1.14;69.82;101184.47;676696;28;4344;-76
2022/03/04 00:34:36;;;;;;;16.00;10.73;;;;;;;1.39;68.97;101178.63;676472;28;1527;-76
2022/03/04 00:34:57;;;;;;;15.85;10.85;;;;;;;1.39;69.23;101164.88;678182;28;2912;-76
2022/03/04 00:35:18;;;;;;;16.25;11.60;;;;;;;1.25;69.61;101160.03;676002;29;1710;-76
2022/03/04 00:35:38;;;;;;;16.70;11.50;;;;;;;1.09;68.90;101193.69;678599;28;3815;-76
2022/03/04 00:36:02;;;;;;;17.35;11.55;;;;;;;0.95;69.52;101173.38;679942;28;1242;-76
2022/03/04 00:36:23;;;;;;;16.38;11.20;;;;;;;0.82;69.87;101191.72;680735;28;932;-76
2022/03/04 00:36:49;;;;;;;16.05;11.07;;;;;;;0.92;69.49;101154.38;678241;28;1614;-76
2022/03/04 00:37:10;;;;;;;16.35;11.23;;;;;;;1.04;71.14;101188.38;678924;28;4278;-76
2022/03/04 00:37:33;;;;;;;16.63;11.15;;;;;;;0.89;72.06;101154.22;677668;29;1314;-76
2022/03/04 00:38:02;;;;;;;16.95;10.95;;;;;;;0.90;70.53;101155.97;676201;29;3424;-76
2022/03/04 00:38:38;;;;;;;15.40;10.52;;;;;;;1.29;68.76;101181.66;675756;29;1865;-76
2022/03/04 00:38:59;;;;;;;15.88;10.88;;;;;;;1.13;69.06;101157.81;673053;29;1527;-76
2022/03/04 00:39:19;;;;;;;17.60;11.32;;;;;;;1.06;69.77;101191.00;674284;29;4594;-76
2022/03/04 00:39:40;;;;;;;16.27;11.07;;;;;;;1.05;69.46;101153.19;677802;28;1333;-76
2022/03/04 00:40:01;;;;;;;15.67;11.20;;;;;;;0.96;70.92;101148.53;679533;28;5324;-76
2022/03/04 00:40:21;;;;;;;16.88;11.15;;;;;;;0.87;69.60;101177.31;680628;28;1717;-76
2022/03/04 00:40:42;;;;;;;16.90;11.48;;;;;;;0.98;69.95;101167.50;680983;28;3512;-76
2022/03/04 00:41:03;;;;;;;16.03;11.33;;;;;;;0.91;70.99;101161.19;681688;28;3885;-76
2022/03/04 00:41:24;;;;;;;16.40;11.73;;;;;;;0.94;70.65;101166.50;683830;28;2006;-77
2022/03/04 00:41:44;;;;;;;16.67;11.70;;;;;;;1.01;71.66;101155.63;681695;28;1394;-76
2022/03/04 00:42:05;;;;;;;16.40;11.80;;;;;;;0.90;70.95;101159.47;682245;28;1846;-76
2022/03/04 00:42:27;;;;;;;16.95;11.65;;;;;;;0.90;70.95;101174.00;683022;28;1446;-77
2022/03/04 00:42:48;;;;;;;17.10;11.35;;;;;;;0.81;72.75;101172.78;679832;28;1389;-76
2022/03/04 00:43:09;;;;;;;16.57;11.47;;;;;;;0.76;72.79;101182.03;678375;28;4465;-76
2022/03/04 00:43:30;;;;;;;16.58;11.48;;;;;;;0.70;71.81;101160.28;680238;28;3703;-76
2022/03/04 00:43:52;;;;;;;16.83;11.18;;;;;;;0.64;71.79;101163.47;675975;29;1293;-76
2022/03/04 00:44:12;;;;;;;19.00;11.55;;;;;;;0.55;72.41;101166.50;678178;28;1324;-76
2022/03/04 00:44:32;;;;;;;17.90;11.30;;;;;;;0.52;72.16;101181.81;679470;28;1587;-76
2022/03/04 00:44:53;;;;;;;16.50;11.18;;;;;;;0.52;71.23;101161.25;680351;28;1288;-76
2022/03/04 00:45:26;;;;;;;15.77;11.30;;;;;;;0.65;72.04;101168.69;676429;28;1343;-77
2022/03/04 00:45:51;;;;;;;17.30;11.45;;;;;;;0.58;72.13;101158.94;674289;29;1417;-76
2022/03/04 00:46:14;;;;;;;18.02;11.73;;;;;;;0.60;70.88;101195.91;674207;29;4374;-76
2022/03/04 00:46:38;;;;;;;16.75;11.10;;;;;;;0.51;71.63;101162.03;674021;29;3564;-76
2022/03/04 00:47:16;;;;;;;16.55;11.45;;;;;;;0.49;72.39;101182.56;674298;29;1173;-76
2022/03/04 00:47:37;;;;;;;16.77;11.85;;;;;;;0.55;72.65;101192.25;676887;29;1367;-76
2022/03/04 00:48:00;;;;;;;15.70;11.50;;;;;;;0.48;71.63;101180.78;672447;29;1337;-76
2022/03/04 00:48:21;;;;;;;17.08;11.73;;;;;;;0.39;72.02;101175.25;675779;29;1364;-76
2022/03/04 00:48:42;;;;;;;17.63;12.37;;;;;;;0.48;72.06;101165.34;676469;29;1379;-76
2022/03/04 00:49:06;;;;;;;17.48;11.63;;;;;;;0.65;71.48;101183.22;672800;29;4295;-76
2022/03/04 00:49:27;;;;;;;16.55;11.35;;;;;;;0.85;69.89;101186.69;678706;28;3290;-76
2022/03/04 00:49:50;;;;;;;17.45;11.38;;;;;;;1.09;69.53;101170.53;683253;28;1490;-76
2022/03/04 00:50:14;;;;;;;16.92;11.07;;;;;;;1.32;68.50;101169.78;682123;28;1737;-76
2022/03/04 00:50:34;;;;;;;16.83;11.48;;;;;;;1.32;68.77;101180.06;681517;28;1608;-76
2022/03/04 00:50:55;;;;;;;16.33;11.07;;;;;;;1.39;68.75;101178.63;676468;29;1353;-76
2022/03/04 00:51:18;;;;;;;17.65;11.73;;;;;;;1.19;69.25;101188.09;672914;29;1491;-76
2022/03/04 00:51:48;;;;;;;17.27;11.60;;;;;;;1.00;69.27;101181.31;677260;29;1333;-76
2022/03/04 00:52:08;;;;;;;15.77;10.70;;;;;;;1.15;69.17;101166.50;677359;29;4512;-77
2022/03/04 00:52:30;;;;;;;16.23;10.90;;;;;;;1.29;68.98;101182.53;681870;28;1318;-76
2022/03/04 00:52:58;;;;;;;17.10;11.38;;;;;;;1.05;69.22;101197.81;678209;28;1372;-76
2022/03/04 00:53:18;;;;;;;17.15;11.68;;;;;;;0.88;69.61;101191.97;681714;28;1229;-76
2022/03/04 00:53:42;;;;;;;17.00;10.77;;;;;;;0.81;69.41;101157.34;679333;28;1350;-76
2022/03/04 00:54:02;;;;;;;17.02;10.85;;;;;;;0.84;69.08;101170.38;674456;29;1338;-76
2022/03/04 00:54:23;;;;;;;15.77;10.45;;;;;;;0.95;68.50;101193.97;674205;29;1725;-76
2022/03/04 00:54:47;;;;;;;16.10;11.18;;;;;;;0.88;69.84;101185.94;677824;28;3034;-76
2022/03/04 00:55:09;;;;;;;16.85;11.55;;;;;;;0.73;70.15;101196.44;675819;28;4302;-76
2022/03/04 00:55:29;;;;;;;16.17;11.27;;;;;;;0.60;71.80;101190.75;677391;28;2580;-76
2022/03/04 00:55:50;;;;;;;16.05;11.20;;;;;;;0.61;70.90;101177.09;679602;28;1208;-76
2022/03/04 00:56:12;;;;;;;15.60;10.95;;;;;;;0.67;71.31;101166.19;678677;28;1406;-76
2022/03/04 00:56:32;;;;;;;15.80;10.82;;;;;;;0.66;71.77;101191.00;679589;28;1275;-76
2022/03/04 00:57:14;;;;;;;16.70;11.27;;;;;;;0.66;71.00;101167.84;678934;29;1281;-76
2022/03/04 00:57:34;;;;;;;17.20;10.68;;;;;;;0.88;70.58;101163.66;677227;29;3289;-76
2022/03/04 00:57:55;;;;;;;16.90;11.40;;;;;;;0.80;70.91;101170.16;678082;28;4367;-76
2022/03/04 00:58:16;;;;;;;16.70;11.82;;;;;;;0.69;70.00;101169.69;680625;28;1429;-76
2022/03/04 00:58:43;;;;;;;16.77;11.00;;;;;;;0.61;71.26;101174.53;679480;28;1356;-76
2022/03/04 00:59:04;;;;;;;17.02;11.30;;;;;;;0.51;72.97;101169.75;680960;28;1453;-76
2022/03/04 00:59:25;;;;;;;17.20;10.95;;;;;;;0.43;72.99;101187.44;680257;28;1564;-77
2022/03/04 00:59:45;;;;;;;18.17;11.73;;;;;;;0.38;71.52;101185.47;681491;28;1492;-76
2022/03/04 01:00:07;;;;;;;17.65;11.60;;;;;;;0.32;71.93;101186.97;679994;28;2005;-76
2022/03/04 01:00:27;;;;;;;17.38;11.20;;;;;;;0.33;73.58;101165.56;678798;28;3201;-76
2022/03/04 01:00:47;;;;;;;16.20;10.70;;;;;;;0.34;72.66;101167.31;681161;28;3904;-76
2022/03/04 01:01:08;;;;;;;16.85;11.30;;;;;;;0.34;73.05;101166.44;682934;28;4431;-76
2022/03/04 01:01:29;;;;;;;16.15;11.07;;;;;;;0.45;72.03;101172.06;684264;28;1247;-76
2022/03/04 01:01:53;;;;;;;16.30;10.88;;;;;;;0.59;72.43;101173.56;684291;28;1262;-76
2022/03/04 01:02:13;;;;;;;16.25;11.20;;;;;;;0.49;72.65;101166.25;684109;28;1558;-76
2022/03/04 01:02:34;;;;;;;16.23;10.90;;;;;;;0.47;72.36;101168.75;682788;28;1412;-76
2022/03/04 01:02:54;;;;;;;16.87;10.90;;;;;;;0.44;72.61;101172.88;680238;28;1331;-76
2022/03/04 01:03:14;;;;;;;16.80;11.30;;;;;;;0.40;71.64;101165.84;681089;28;2040;-76
2022/03/04 01:03:35;;;;;;;16.47;11.20;;;;;;;0.52;72.16;101168.97;679852;28;1362;-76
2022/03/04 01:04:02;;;;;;;16.35;10.70;;;;;;;0.73;71.42;101186.16;678478;28;4335;-76
2022/03/04 01:04:26;;;;;;;17.52;11.02;;;;;;;0.70;71.58;101175.72;682077;28;1331;-77
2022/03/04 01:04:47;;;;;;;16.85;11.57;;;;;;;0.58;71.09;101179.53;681778;28;1611;-76
2022/03/04 01:05:07;;;;;;;17.45;11.95;;;;;;;0.47;73.37;101175.59;681343;28;1324;-76
2022/03/04 01:05:29;;;;;;;17.17;11.30;;;;;;;0.58;71.72;101196.66;679148;28;1606;-76
2022/03/04 01:05:50;;;;;;;17.48;10.98;;;;;;;0.55;72.85;101173.38;678273;28;1503;-76
2022/03/04 01:06:11;;;;;;;16.77;10.98;;;;;;;0.59;71.78;101213.84;679500;28;3457;-76
2022/03/04 01:06:32;;;;;;;16.57;10.83;;;;;;;0.68;70.68;101163.66;677493;28;3455;-76
2022/03/04 01:06:55;;;;;;;17.13;11.18;;;;;;;0.64;71.20;101191.78;677507;28;4386;-76
2022/03/04 01:07:19;;;;;;;16.83;11.23;;;;;;;0.55;71.75;101194.81;676868;29;1316;-76
2022/03/04 01:07:39;;;;;;;16.33;11.70;;;;;;;0.46;71.53;101179.00;682503;28;1505;-76
2022/03/04 01:08:00;;;;;;;18.20;12.05;;;;;;;0.43;72.32;101171.13;680750;28;1286;-76
2022/03/04 01:08:20;;;;;;;16.77;11.25;;;;;;;0.48;71.09;101180.78;678656;28;1414;-76
2022/03/04 01:08:41;;;;;;;17.23;10.70;;;;;;;0.63;71.28;101169.44;675571;29;1550;-76
2022/03/04 01:09:02;;;;;;;16.25;10.70;;;;;;;0.64;71.59;101192.66;675143;29;2230;-76
2022/03/04 01:09:26;;;;;;;16.00;10.55;;;;;;;0.87;70.05;101199.63;675417;29;3535;-76
2022/03/04 01:09:47;;;;;;;15.95;10.93;;;;;;;1.04;68.46;101177.16;675970;29;1296;-76
2022/03/04 01:10:07;;;;;;;16.42;11.32;;;;;;;1.01;70.12;101204.56;674655;29;4299;-76
2022/03/04 01:10:28;;;;;;;17.83;11.77;;;;;;;0.98;69.90;101163.25;678670;29;1560;-76
2022/03/04 01:10:48;;;;;;;16.20;10.90;;;;;;;0.92;70.30;101183.56;678325;28;1239;-77
2022/03/04 01:11:09;;;;;;;16.70;11.32;;;;;;;0.88;69.20;101170.50;681992;28;1307;-76
2022/03/04 01:11:33;;;;;;;15.55;10.30;;;;;;;0.98;68.24;101162.34;677303;29;1700;-76
2022/03/04 01:12:00;;;;;;;16.10;11.00;;;;;;;1.02;68.29;101177.09;678080;28;3276;-76
2022/03/04 01:12:22;;;;;;;16.45;11.38;;;;;;;0.83;69.91;101163.47;680874;28;1454;-76
2022/03/04 01:12:45;;;;;;;16.57;11.27;;;;;;;0.74;69.70;101185.34;682173;28;1585;-76
2022/03/04 01:13:06;;;;;;;16.40;11.15;;;;;;;0.85;68.48;101178.97;681552;28;4404;-76
2022/03/04 01:13:27;;;;;;;18.77;11.68;;;;;;;0.73;69.93;101192.16;683912;28;1506;-76
2022/03/04 01:13:47;;;;;;;18.02;11.68;;;;;;;0.68;70.13;101181.69;680525;28;1445;-78
2022/03/04 01:14:12;;;;;;;16.75;11.13;;;;;;;0.65;71.25;101189.28;679708;29;1550;-77
2022/03/04 01:14:32;;;;;;;17.75;11.68;;;;;;;0.55;70.50;101166.50;678782;28;3092;-76
2022/03/04 01:14:54;;;;;;;18.23;11.75;;;;;;;0.48;71.06;101185.94;678611;28;2104;-77
2022/03/04 01:15:18;;;;;;;16.23;11.13;;;;;;;0.37;72.19;101176.00;678807;28;2035;-76
2022/03/04 01:15:41;;;;;;;17.45;11.50;;;;;;;0.45;71.32;101195.22;678875;28;1537;-76
2022/03/04 01:16:05;;;;;;;16.48;11.12;;;;;;;0.42;73.49;101177.97;680514;28;4302;-76
2022/03/04 01:16:26;;;;;;;17.03;11.27;;;;;;;0.47;72.04;101183.31;679854;28;1391;-77
2022/03/04 01:16:49;;;;;;;16.55;11.15;;;;;;;0.56;69.83;101170.84;679244;28;2644;-76
2022/03/04 01:17:09;;;;;;;16.08;11.35;;;;;;;0.66;70.30;101156.69;679526;28;1654;-76
2022/03/04 01:17:32;;;;;;;17.03;11.63;;;;;;;0.73;69.94;101192.16;682408;28;3585;-76
2022/03/04 01:17:53;;;;;;;17.50;11.73;;;;;;;0.69;71.36;101190.28;678691;28;1253;-76
2022/03/04 01:18:14;;;;;;;15.30;10.63;;;;;;;0.79;70.30;101163.25;675817;29;1155;-76
2022/03/04 01:18:35;;;;;;;16.25;11.07;;;;;;;0.88;69.07;101160.19;672983;29;1775;-76
2022/03/04 01:18:55;;;;;;;17.03;11.37;;;;;;;0.99;68.49;101185.56;673105;29;4348;-76
2022/03/04 01:19:16;;;;;;;17.52;11.32;;;;;;;1.12;67.74;101175.78;677396;28;1496;-76
2022/03/04 01:19:36;;;;;;;15.87;10.80;;;;;;;1.02;71.07;101172.84;679560;29;1204;-76
2022/03/04 01:19:57;;;;;;;17.10;11.50;;;;;;;0.93;70.07;101185.31;680292;28;1518;-76
2022/03/04 01:20:18;;;;;;;17.00;11.43;;;;;;;0.82;69.79;101191.72;677738;29;3768;-76
2022/03/04 01:20:39;;;;;;;17.40;11.20;;;;;;;0.86;68.74;101178.16;672590;29;1285;-76
2022/03/04 01:20:59;;;;;;;16.80;11.20;;;;;;;0.80;69.66;101183.03;674712;29;3413;-76
2022/03/04 01:21:20;;;;;;;17.84;11.76;;;;;;;0.76;71.11;101161.44;674152;29;1380;-76
2022/03/04 01:21:41;;;;;;;17.00;10.77;;;;;;;0.67;71.90;101190.22;676251;29;1326;-76
2022/03/04 01:22:05;;;;;;;17.42;10.98;;;;;;;0.62;73.65;101168.56;670086;28;4318;-76
2022/03/04 01:22:28;;;;;;;17.90;11.73;;;;;;;0.61;72.63;101177.09;680424;28;1172;-76
2022/03/04 01:22:49;;;;;;;17.30;11.38;;;;;;;0.65;70.90;101160.97;682165;28;1066;-76
2022/03/04 01:23:10;;;;;;;15.90;11.00;;;;;;;0.74;70.29;101177.63;683345;28;3576;-76
2022/03/04 01:23:30;;;;;;;17.10;11.07;;;;;;;0.92;69.09;101167.25;678319;28;1529;-77
2022/03/04 01:23:51;;;;;;;17.30;11.23;;;;;;;1.01;68.49;101173.66;679579;28;1291;-76
2022/03/04 01:24:11;;;;;;;15.77;10.73;;;;;;;0.95;70.08;101163.09;679749;28;1536;-77
2022/03/04 01:24:32;;;;;;;17.58;11.30;;;;;;;0.85;68.82;101184.97;679250;28;1387;-76
2022/03/04 01:24:59;;;;;;;17.17;11.27;;;;;;;0.97;68.41;101165.72;679889;28;4416;-76
2022/03/04 01:25:20;;;;;;;17.20;11.45;;;;;;;0.97;69.84;101181.16;682228;28;1264;-76
2022/03/04 01:25:44;;;;;;;17.20;11.20;;;;;;;0.99;68.36;101185.56;681657;28;1284;-76
2022/03/04 01:26:04;;;;;;;15.93;10.60;;;;;;;0.94;68.93;101161.34;683573;28;3169;-76
2022/03/04 01:26:25;;;;;;;17.30;10.93;;;;;;;0.85;68.99;101186.69;680087;28;1582;-77
2022/03/04 01:26:46;;;;;;;18.08;11.10;;;;;;;0.80;69.32;101165.91;673740;29;1982;-76
2022/03/04 01:27:06;;;;;;;18.13;11.27;;;;;;;0.74;70.64;101160.47;672257;29;1725;-76
2022/03/04 01:27:27;;;;;;;17.47;11.30;;;;;;;0.73;69.23;101166.44;671653;29;1975;-76
2022/03/04 01:27:48;;;;;;;16.17;10.90;;;;;;;0.81;69.32;101170.22;677053;29;1303;-76
2022/03/04 01:28:09;;;;;;;16.93;10.97;;;;;;;0.80;71.19;101175.31;677450;28;4292;-76
2022/03/04 01:28:29;;;;;;;17.23;11.32;;;;;;;0.78;70.23;101189.81;679989;28;1330;-76
2022/03/04 01:28:50;;;;;;;17.17;11.15;;;;;;;0.74;72.30;101168.19;678784;28;1855;-76
2022/03/04 01:29:10;;;;;;;16.40;11.03;;;;;;;0.68;72.56;101184.25;681361;28;3996;-76
2022/03/04 01:29:34;;;;;;;17.97;11.43;;;;;;;0.66;71.81;101180.72;678160;28;1308;-76
2022/03/04 01:29:57;;;;;;;17.13;11.50;;;;;;;0.63;72.46;101175.44;680116;28;1190;-77
2022/03/04 01:30:18;;;;;;;17.65;11.20;;;;;;;0.65;72.42;101183.22;681940;28;1363;-77
2022/03/04 01:30:39;;;;;;;16.70;11.50;;;;;;;0.66;70.44;101201.31;683011;28;1394;-77
2022/03/04 01:31:02;;;;;;;17.70;11.73;;;;;;;0.71;69.94;101183.50;676953;28;4452;-76
2022/03/04 01:31:25;;;;;;;17.80;11.63;;;;;;;0.68;69.26;101184.25;678244;29;1449;-76
2022/03/04 01:31:48;;;;;;;16.90;10.95;;;;;;;0.74;68.50;101151.91;679952;28;2627;-76
2022/03/04 01:32:09;;;;;;;16.95;11.00;;;;;;;0.73;71.04;101166.44;678435;28;1246;-76
2022/03/04 01:32:33;;;;;;;17.70;11.35;;;;;;;0.73;69.00;101155.28;678750;28;1441;-76
2022/03/04 01:32:54;;;;;;;18.00;11.57;;;;;;;0.67;68.89;101164.47;681256;28;1810;-76
2022/03/04 01:33:15;;;;;;;16.70;11.27;;;;;;;0.70;69.63;101180.88;683073;28;1264;-77
2022/03/04 01:33:35;;;;;;;17.63;11.33;;;;;;;0.63;69.19;101183.16;683094;28;1316;-76
2022/03/04 01:34:08;;;;;;;18.02;11.60;;;;;;;0.66;69.02;101160.13;676041;28;4301;-76
2022/03/04 01:34:29;;;;;;;17.30;11.20;;;;;;;0.82;68.85;101146.25;678605;28;2016;-76
2022/03/04 01:34:49;;;;;;;17.02;11.07;;;;;;;0.82;70.16;101155.69;673529;28;1297;-76
2022/03/04 01:35:10;;;;;;;17.60;11.10;;;;;;;0.78;69.89;101158.94;679689;28;2565;-76
2022/03/04 01:35:30;;;;;;;17.85;11.18;;;;;;;0.75;70.03;101176.78;682385;28;1282;-76
2022/03/04 01:35:53;;;;;;;17.83;11.25;;;;;;;0.80;70.84;101172.72;682016;28;1304;-77
2022/03/04 01:36:17;;;;;;;17.85;11.77;;;;;;;0.77;71.29;101191.50;677813;29;1557;-76
2022/03/04 01:36:43;;;;;;;16.70;11.27;;;;;;;0.68;69.17;101158.53;676813;29;1820;-76
2022/03/04 01:37:04;;;;;;;17.70;11.68;;;;;;;0.66;68.70;101179.84;675436;29;4294;-76
2022/03/04 01:37:25;;;;;;;17.90;11.52;;;;;;;0.73;68.79;101186.16;675260;29;2905;-76
2022/03/04 01:37:47;;;;;;;16.83;11.13;;;;;;;0.72;70.44;101158.66;675447;29;3792;-76
2022/03/04 01:38:07;;;;;;;17.70;11.63;;;;;;;0.67;70.11;101187.63;676644;29;1245;-76
2022/03/04 01:38:28;;;;;;;18.80;12.30;;;;;;;0.59;69.11;101178.69;678277;28;1354;-76
2022/03/04 01:38:49;;;;;;;17.88;11.77;;;;;;;0.61;70.35;101178.75;678474;28;1338;-77
2022/03/04 01:39:09;;;;;;;16.95;11.15;;;;;;;0.65;69.54;101148.09;675779;29;4374;-76
2022/03/04 01:39:30;;;;;;;16.43;11.10;;;;;;;0.71;69.16;101173.22;675700;29;1593;-76
2022/03/04 01:39:54;;;;;;;17.27;11.30;;;;;;;0.73;69.94;101175.84;676334;29;1307;-76
2022/03/04 01:40:15;;;;;;;17.75;11.30;;;;;;;0.72;68.39;101153.50;679671;28;4929;-77
2022/03/04 01:40:36;;;;;;;17.02;10.90;;;;;;;0.78;68.12;101164.09;678797;28;1960;-76
2022/03/04 01:40:56;;;;;;;17.98;11.55;;;;;;;0.83;67.94;101193.44;680271;28;1537;-76
2022/03/04 01:41:17;;;;;;;18.02;11.70;;;;;;;0.83;69.44;101172.84;676662;29;1508;-76
2022/03/04 01:41:45;;;;;;;18.17;11.33;;;;;;;0.80;68.58;101172.72;675285;29;1289;-76
2022/03/04 01:42:06;;;;;;;17.17;11.23;;;;;;;0.79;69.76;101176.09;674127;29;1490;-76
2022/03/04 01:42:27;;;;;;;16.60;11.15;;;;;;;0.85;68.72;101142.94;675466;29;1858;-76
2022/03/04 01:42:48;;;;;;;17.85;11.15;;;;;;;0.86;71.95;101157.56;677001;29;1582;-76
2022/03/04 01:43:10;;;;;;;17.45;11.65;;;;;;;0.86;69.00;101193.59;676101;29;4305;-76
2022/03/04 01:43:31;;;;;;;16.90;11.60;;;;;;;0.85;69.47;101177.25;673324;29;1331;-76
2022/03/04 01:43:51;;;;;;;18.35;11.80;;;;;;;0.92;68.98;101169.81;673013;29;3789;-76
2022/03/04 01:44:12;;;;;;;17.70;11.57;;;;;;;0.87;68.09;101179.91;672787;29;1659;-76
2022/03/04 01:44:33;;;;;;;18.15;11.50;;;;;;;0.95;68.82;101175.97;677526;29;1432;-77